Time;durP1;ratioP1;P1;durP2;ratioP2;P2;SDS_P1;SDS_P2;PMS_P1;PMS_P2;Temp;Humidity;BMP_temperature;BMP_pressure;BME280_temperature;BME280_humidity;BME280_pressure;Samples;Min_cycle;Max_cycle;Signal;HPM_P1;HPM_P2
2022/05/13 00:02:21;;;;;;;;;13.67;10.00;;;;;15.90;48.83;101955.59;5072121;27;45413;-69
2022/05/13 00:04:47;;;;;;;;;8.00;8.00;;;;;15.88;48.94;101952.13;5083541;27;45286;-69
2022/05/13 00:07:12;;;;;;;;;3.00;3.00;;;;;15.80;48.87;101948.44;5072351;27;45162;-69
2022/05/13 00:12:22;;;;;;;;;9.67;6.00;;;;;15.85;49.27;101951.59;5072111;27;45305;-69
2022/05/13 00:14:47;;;;;;;;;5.00;5.00;;;;;15.76;49.25;101941.53;5101583;27;45507;-69
2022/05/13 00:17:14;;;;;;;;;6.00;5.67;;;;;15.76;49.41;101957.97;5081138;27;45381;-70
2022/05/13 00:19:39;;;;;;;;;2.00;2.00;;;;;15.69;49.73;101956.88;5061427;28;45591;-69
2022/05/13 00:22:05;;;;;;;;;7.00;3.00;;;;;15.60;49.84;101953.16;5062343;28;45361;-70
2022/05/13 00:24:30;;;;;;;;;2.67;2.67;;;;;15.59;50.14;101951.44;5063003;28;45380;-69
2022/05/13 00:26:56;;;;;;;;;6.67;2.33;;;;;15.57;50.13;101954.31;5064814;28;45267;-70
2022/05/13 00:29:22;;;;;;;;;3.00;2.00;;;;;15.51;50.49;101954.88;5062631;28;46479;-69
2022/05/13 00:31:47;;;;;;;;;3.33;2.00;;;;;15.49;49.90;101939.59;5061225;28;45353;-69
2022/05/13 00:34:13;;;;;;;;;2.00;2.00;;;;;15.54;50.08;101949.16;5062830;28;45398;-70
2022/05/13 00:36:39;;;;;;;;;3.00;3.00;;;;;15.55;50.00;101956.38;5061526;28;45568;-69
2022/05/13 00:39:06;;;;;;;;;3.33;2.00;;;;;15.49;50.17;101950.56;5061070;28;48483;-69
2022/05/13 00:41:31;;;;;;;;;3.00;2.67;;;;;15.45;50.58;101946.41;5062502;28;45238;-69
2022/05/13 00:43:57;;;;;;;;;5.00;1.00;;;;;15.43;50.71;101946.56;5062431;28;45285;-69
2022/05/13 00:46:26;;;;;;;;;2.00;2.00;;;;;15.46;50.29;101942.66;5062860;28;45291;-69
2022/05/13 00:48:52;;;;;;;;;4.00;1.00;;;;;15.43;50.23;101941.09;5062463;28;45413;-69
2022/05/13 00:51:28;;;;;;;;;1.33;1.00;;;;;15.41;50.34;101948.63;5060813;28;45326;-70
2022/05/13 00:53:55;;;;;;;;;5.33;3.00;;;;;15.33;50.99;101948.50;5062495;28;45365;-69
2022/05/13 00:56:21;;;;;;;;;2.67;1.00;;;;;15.28;50.87;101948.06;5061456;28;45305;-69
2022/05/13 00:58:51;;;;;;;;;1.00;1.00;;;;;15.25;51.11;101951.13;5065666;28;46564;-68
2022/05/13 01:01:16;;;;;;;;;1.33;1.33;;;;;15.21;51.50;101963.38;5065440;28;45345;-68
2022/05/13 01:03:42;;;;;;;;;0.67;0.33;;;;;15.16;51.48;101950.13;5065846;28;45511;-69
2022/05/13 01:06:12;;;;;;;;;1.33;0.00;;;;;15.13;51.42;101957.75;5085642;28;45507;-70
2022/05/13 01:08:39;;;;;;;;;3.00;1.00;;;;;15.12;51.48;101947.84;5084021;28;47190;-69
2022/05/13 01:11:12;;;;;;;;;1.67;1.33;;;;;15.06;50.95;101932.88;5084373;28;45901;-69
2022/05/13 01:13:38;;;;;;;;;0.67;0.67;;;;;15.13;51.43;101949.56;5084058;28;45298;-69
2022/05/13 01:16:04;;;;;;;;;3.67;2.00;;;;;15.00;51.53;101954.50;5086540;28;45438;-69
2022/05/13 01:18:37;;;;;;;;;2.00;2.00;;;;;15.01;51.50;101956.22;5085434;28;45487;-70
2022/05/13 01:21:06;;;;;;;;;1.00;1.00;;;;;15.04;51.37;101951.34;5083543;28;45302;-69
2022/05/13 01:23:36;;;;;;;;;1.00;1.00;;;;;15.00;51.38;101952.63;5085626;27;45323;-69
2022/05/13 01:26:06;;;;;;;;;1.00;1.00;;;;;14.91;51.64;101952.63;5084881;28;45459;-69
2022/05/13 01:28:35;;;;;;;;;2.00;0.33;;;;;14.87;52.12;101948.47;5085093;27;46167;-69
2022/05/13 01:31:04;;;;;;;;;3.00;1.00;;;;;14.89;51.45;101954.69;5085614;28;45276;-69
2022/05/13 01:33:30;;;;;;;;;2.00;1.00;;;;;14.86;51.67;101947.63;5085504;27;45391;-69
2022/05/13 01:35:58;;;;;;;;;1.00;0.67;;;;;14.89;50.92;101957.41;5084495;28;45254;-69
2022/05/13 01:38:29;;;;;;;;;2.67;1.67;;;;;14.77;51.53;101954.81;5085459;27;45381;-70
2022/05/13 01:40:55;;;;;;;;;1.00;1.00;;;;;14.71;51.54;101960.88;5085615;27;45466;-69
2022/05/13 01:43:22;;;;;;;;;1.00;1.00;;;;;14.73;51.52;101961.63;5084011;28;45291;-69
2022/05/13 01:45:47;;;;;;;;;1.00;1.00;;;;;14.75;51.57;101962.34;5085942;28;45324;-69
2022/05/13 01:48:13;;;;;;;;;1.33;1.33;;;;;14.68;51.48;101955.69;5084970;28;45491;-69
2022/05/13 01:50:39;;;;;;;;;2.67;1.00;;;;;14.65;52.03;101961.47;5085148;28;45328;-69
2022/05/13 01:53:05;;;;;;;;;1.00;1.00;;;;;14.56;52.15;101950.53;5085380;27;45244;-69
2022/05/13 01:55:31;;;;;;;;;2.33;2.00;;;;;14.50;52.30;101954.72;5085813;27;45441;-69
2022/05/13 01:57:57;;;;;;;;;2.00;1.00;;;;;14.48;52.21;101954.00;5084834;28;46216;-70
2022/05/13 02:00:23;;;;;;;;;0.67;0.67;;;;;14.49;51.86;101944.78;5085346;28;45272;-70
2022/05/13 02:05:33;;;;;;;;;3.00;1.00;;;;;14.50;51.72;101949.25;5070275;28;45252;-69
2022/05/13 02:07:58;;;;;;;;;1.00;1.00;;;;;14.49;52.05;101955.72;5064137;28;45322;-69
2022/05/13 02:10:24;;;;;;;;;4.33;2.33;;;;;14.44;52.38;101951.69;5064776;28;45225;-70
2022/05/13 02:12:49;;;;;;;;;8.67;3.00;;;;;14.38;52.66;101953.16;5064962;28;45395;-69
2022/05/13 02:15:16;;;;;;;;;6.67;6.00;;;;;14.35;53.02;101951.53;5065201;28;45384;-70
2022/05/13 02:17:41;;;;;;;;;14.75;14.75;;;;;14.29;52.45;101960.28;5064620;28;45460;-69
2022/05/13 02:20:08;;;;;;;;;23.25;20.00;;;;;14.32;52.66;101953.66;5062911;28;45669;-69
2022/05/13 02:22:33;;;;;;;;;19.75;18.25;;;;;14.27;52.63;101947.78;5064355;28;45317;-70
2022/05/13 02:24:59;;;;;;;;;27.50;25.25;;;;;14.29;52.23;101956.69;5063420;28;45428;-70
2022/05/13 02:27:25;;;;;;;;;26.25;20.50;;;;;14.31;52.82;101963.75;5066119;28;45229;-69
2022/05/13 02:29:51;;;;;;;;;44.25;36.25;;;;;14.30;52.57;101958.44;5064332;28;45221;-70
2022/05/13 02:32:17;;;;;;;;;42.50;35.75;;;;;14.33;51.73;101963.59;5064279;28;45246;-70
2022/05/13 02:34:42;;;;;;;;;45.25;36.50;;;;;14.33;52.62;101956.25;5064782;28;45413;-69
2022/05/13 02:37:08;;;;;;;;;41.50;33.75;;;;;14.31;52.46;101958.28;5063988;28;45415;-68
2022/05/13 02:39:33;;;;;;;;;41.50;34.25;;;;;14.30;52.31;101955.69;5064139;28;45189;-68
2022/05/13 02:41:59;;;;;;;;;32.00;30.00;;;;;14.32;52.46;101960.00;5064428;28;45225;-68
2022/05/13 02:44:25;;;;;;;;;38.00;31.25;;;;;14.28;52.49;101953.09;5063211;28;45441;-68
2022/05/13 02:46:52;;;;;;;;;27.00;24.50;;;;;14.29;52.77;101951.22;5062979;28;47145;-68
2022/05/13 02:49:17;;;;;;;;;29.50;24.75;;;;;14.29;52.50;101963.03;5063848;28;45326;-68
2022/05/13 02:51:46;;;;;;;;;16.00;14.00;;;;;14.30;52.52;101961.16;5063916;28;45312;-68
2022/05/13 02:54:11;;;;;;;;;16.25;11.75;;;;;14.26;52.73;101959.72;5064289;28;45289;-68
2022/05/13 02:56:36;;;;;;;;;11.00;8.33;;;;;14.15;52.50;101952.53;5063936;28;46371;-69
2022/05/13 02:59:02;;;;;;;;;5.00;5.00;;;;;14.17;52.58;101955.94;5062094;28;45349;-68
2022/05/13 03:01:28;;;;;;;;;6.00;4.00;;;;;14.15;52.84;101965.31;5062675;28;45186;-68
2022/05/13 03:03:53;;;;;;;;;3.33;2.67;;;;;14.11;53.13;101955.66;5063943;28;45305;-68
2022/05/13 03:06:20;;;;;;;;;3.00;3.00;;;;;14.05;53.35;101957.09;5083992;28;46287;-68
2022/05/13 03:08:47;;;;;;;;;2.33;2.33;;;;;14.06;53.43;101952.50;5083943;27;45383;-68
2022/05/13 03:11:13;;;;;;;;;5.00;3.67;;;;;14.02;53.50;101958.25;5082440;28;45346;-68
2022/05/13 03:13:39;;;;;;;;;3.33;2.67;;;;;13.90;54.11;101959.38;5084281;28;45451;-68
2022/05/13 03:16:14;;;;;;;;;6.00;3.00;;;;;13.96;53.69;101956.06;5083914;28;45368;-68
2022/05/13 03:18:39;;;;;;;;;2.33;2.33;;;;;13.88;53.61;101950.44;5082335;28;45305;-69
2022/05/13 03:21:05;;;;;;;;;3.33;2.33;;;;;13.96;54.33;101953.34;5081321;28;45407;-68
2022/05/13 03:23:30;;;;;;;;;1.00;1.00;;;;;13.96;54.29;101952.47;5084101;28;45625;-69
2022/05/13 03:25:56;;;;;;;;;3.00;2.67;;;;;13.93;54.53;101959.09;5082450;28;48262;-68
2022/05/13 03:28:22;;;;;;;;;3.67;3.67;;;;;13.97;54.73;101946.88;5067270;27;45408;-68
2022/05/13 03:30:49;;;;;;;;;5.33;3.00;;;;;13.95;55.02;101945.31;5062297;28;45326;-68
2022/05/13 03:33:14;;;;;;;;;2.33;2.33;;;;;13.92;55.23;101940.97;5064056;28;45533;-68
2022/05/13 03:35:40;;;;;;;;;3.33;3.33;;;;;13.85;55.51;101953.47;5061587;28;46585;-68
2022/05/13 03:38:05;;;;;;;;;5.00;3.00;;;;;13.87;55.98;101948.75;5063169;28;45289;-69
2022/05/13 03:40:30;;;;;;;;;3.00;3.00;;;;;13.90;55.87;101951.19;5063433;28;45250;-68
2022/05/13 03:42:55;;;;;;;;;2.33;2.33;;;;;13.91;55.83;101950.19;5063666;28;45278;-69
2022/05/13 03:45:21;;;;;;;;;5.67;3.00;;;;;13.95;55.59;101961.72;5063306;28;45433;-68
2022/05/13 03:47:48;;;;;;;;;4.00;3.00;;;;;13.93;55.60;101950.03;5063201;28;45401;-69
2022/05/13 03:50:14;;;;;;;;;4.00;4.00;;;;;13.99;55.28;101955.81;5061740;28;45361;-69
2022/05/13 03:52:40;;;;;;;;;6.00;2.33;;;;;13.94;55.43;101952.63;5063368;28;45418;-68
2022/05/13 03:55:07;;;;;;;;;2.00;2.00;;;;;13.90;55.06;101966.69;5061824;28;47523;-69
2022/05/13 03:57:32;;;;;;;;;4.33;3.00;;;;;13.90;54.95;101959.38;5077431;28;45437;-68
2022/05/13 04:00:00;;;;;;;;;4.33;2.67;;;;;13.92;55.05;101975.63;5083371;27;45304;-69
2022/05/13 04:02:26;;;;;;;;;4.00;2.00;;;;;13.87;54.97;101954.22;5083823;27;45385;-69
2022/05/13 04:10:19;;;;;;;;;4.00;3.00;;;;;13.80;56.20;101963.09;5062766;28;45354;-69
2022/05/13 04:18:12;;;;;;;;;4.00;4.00;;;;;13.84;55.67;101954.47;5062677;28;45240;-67
2022/05/13 04:20:38;;;;;;;;;4.33;4.00;;;;;13.67;55.96;101936.03;5062459;28;45207;-68
2022/05/13 04:23:03;;;;;;;;;4.67;3.67;;;;;13.72;56.04;101961.06;5063338;28;45270;-68
2022/05/13 04:25:29;;;;;;;;;3.33;3.33;;;;;13.83;55.99;101962.81;5062547;28;45457;-69
2022/05/13 04:27:54;;;;;;;;;6.33;2.67;;;;;13.87;55.57;101967.88;5064137;28;45312;-69
2022/05/13 04:30:20;;;;;;;;;5.67;4.00;;;;;13.95;55.18;101978.94;5062497;28;45587;-68
2022/05/13 04:32:45;;;;;;;;;9.67;5.00;;;;;13.95;55.64;101973.47;5066296;28;45329;-68
2022/05/13 04:35:10;;;;;;;;;4.00;4.00;;;;;13.97;55.41;101974.19;5065881;28;46294;-68
2022/05/13 04:37:37;;;;;;;;;6.00;4.00;;;;;14.04;55.23;101983.56;5064332;28;45403;-68
2022/05/13 04:40:03;;;;;;;;;8.67;6.67;;;;;14.03;55.34;101983.69;5065916;28;45368;-69
2022/05/13 04:45:12;;;;;;;;;6.33;6.33;;;;;14.00;55.49;101976.66;5065503;28;45746;-69
2022/05/13 04:50:22;;;;;;;;;10.00;7.67;;;;;14.10;55.42;101987.59;5065387;28;45330;-69
2022/05/13 04:52:48;;;;;;;;;9.00;7.00;;;;;14.03;55.29;101979.09;5065531;28;45258;-68
2022/05/13 04:55:13;;;;;;;;;6.00;4.33;;;;;14.03;55.37;101981.81;5065616;28;45389;-69
2022/05/13 04:57:38;;;;;;;;;5.33;4.00;;;;;14.12;55.20;101982.00;5065286;28;45289;-69
2022/05/13 05:00:07;;;;;;;;;6.00;6.00;;;;;14.18;55.01;101989.63;5065632;28;45254;-68
2022/05/13 05:02:33;;;;;;;;;6.67;5.67;;;;;14.13;54.80;101992.78;5064196;28;45335;-69
2022/05/13 05:04:59;;;;;;;;;6.33;6.33;;;;;14.15;55.07;101992.66;5065069;28;46727;-69
2022/05/13 05:07:24;;;;;;;;;7.00;5.00;;;;;14.09;55.41;101999.56;5063576;28;45210;-69
2022/05/13 05:09:49;;;;;;;;;7.33;5.67;;;;;14.19;55.13;102002.28;5065374;28;45369;-69
2022/05/13 05:12:15;;;;;;;;;5.00;3.00;;;;;14.28;54.73;102005.03;5065683;28;45478;-69
2022/05/13 05:14:40;;;;;;;;;6.67;5.00;;;;;14.47;54.23;102009.69;5064845;28;45253;-69
2022/05/13 05:17:05;;;;;;;;;5.33;5.33;;;;;15.11;53.03;102006.34;5064776;28;45276;-69
2022/05/13 05:19:31;;;;;;;;;7.00;5.33;;;;;14.94;53.12;102004.34;5064552;28;45298;-69
2022/05/13 05:21:57;;;;;;;;;8.00;6.33;;;;;14.72;53.98;102008.25;5063835;28;45548;-69
2022/05/13 05:24:22;;;;;;;;;6.67;5.00;;;;;14.59;54.32;102011.28;5063202;28;45886;-69
2022/05/13 05:26:47;;;;;;;;;3.67;3.67;;;;;14.53;54.80;102014.59;5065624;28;45293;-69
2022/05/13 05:29:13;;;;;;;;;7.00;5.67;;;;;14.44;55.78;102023.66;5063786;28;45276;-69
2022/05/13 05:31:39;;;;;;;;;3.00;3.00;;;;;14.14;56.48;102020.97;5065390;28;45464;-70
2022/05/13 05:34:04;;;;;;;;;3.67;3.67;;;;;14.29;56.38;102023.19;5062941;28;47160;-69
2022/05/13 05:36:30;;;;;;;;;3.67;3.33;;;;;14.40;56.05;102028.53;5064356;28;45228;-69
2022/05/13 05:38:55;;;;;;;;;5.00;3.00;;;;;14.49;56.07;102020.47;5063590;28;45256;-70
2022/05/13 05:41:20;;;;;;;;;4.00;4.00;;;;;14.61;56.04;102031.13;5063416;28;45241;-69
2022/05/13 05:43:46;;;;;;;;;3.00;3.00;;;;;14.66;55.81;102015.19;5063006;28;45402;-69
2022/05/13 05:46:11;;;;;;;;;9.00;6.00;;;;;14.60;55.97;102023.97;5063626;28;45401;-69
2022/05/13 05:48:36;;;;;;;;;4.33;4.00;;;;;14.40;56.54;102020.34;5063826;28;45207;-69
2022/05/13 05:51:02;;;;;;;;;5.00;5.00;;;;;14.54;56.37;102032.72;5062346;28;45284;-70
2022/05/13 05:59:00;;;;;;;;;6.33;4.67;;;;;14.87;55.68;102039.66;5063344;28;45242;-70
2022/05/13 06:01:27;;;;;;;;;4.33;4.33;;;;;14.86;56.17;102050.72;5063883;28;45251;-70
2022/05/13 06:03:52;;;;;;;;;5.33;5.33;;;;;14.91;56.06;102052.00;5064383;28;46043;-69
2022/05/13 06:06:18;;;;;;;;;4.67;4.00;;;;;14.91;56.04;102052.00;5083761;28;45338;-69
2022/05/13 06:08:43;;;;;;;;;5.00;4.33;;;;;14.69;56.96;102050.44;5084677;27;45318;-69
2022/05/13 06:11:09;;;;;;;;;5.67;5.67;;;;;14.83;56.59;102053.78;5083246;28;45339;-70
2022/05/13 06:13:35;;;;;;;;;3.67;2.00;;;;;14.98;56.06;102065.97;5082698;28;48456;-70
2022/05/13 06:16:01;;;;;;;;;5.67;3.00;;;;;14.92;56.05;102067.44;5083790;28;45430;-70
2022/05/13 06:18:26;;;;;;;;;10.00;6.00;;;;;15.20;55.61;102071.16;5082006;28;45904;-71
2022/05/13 06:20:52;;;;;;;;;10.33;6.67;;;;;15.27;55.31;102055.84;5083000;27;45401;-70
2022/05/13 06:23:17;;;;;;;;;4.00;3.00;;;;;15.37;55.06;102062.19;5081974;28;47765;-70
2022/05/13 06:25:42;;;;;;;;;11.67;5.67;;;;;15.64;54.57;102063.28;5081737;28;46152;-71
2022/05/13 06:28:08;;;;;;;;;6.33;6.00;;;;;15.67;54.81;102057.53;5067183;28;45306;-70
2022/05/13 06:30:36;;;;;;;;;10.00;6.33;;;;;15.88;53.76;102066.38;5060938;28;45274;-71
2022/05/13 06:33:03;;;;;;;;;5.67;5.67;;;;;16.06;53.12;102071.94;5060061;28;47309;-70
2022/05/13 06:35:31;;;;;;;;;6.67;6.67;;;;;15.85;53.63;102069.44;5063286;28;45335;-70
2022/05/13 06:37:57;;;;;;;;;6.67;6.67;;;;;15.99;53.25;102082.66;5060918;28;45274;-70
2022/05/13 06:40:24;;;;;;;;;7.67;7.33;;;;;16.04;53.05;102076.69;5062428;28;45258;-70
2022/05/13 06:42:51;;;;;;;;;8.67;7.33;;;;;15.89;53.03;102077.19;5060111;28;47188;-70
2022/05/13 06:45:16;;;;;;;;;4.33;4.33;;;;;15.82;53.14;102084.28;5061800;28;45242;-70
2022/05/13 06:47:42;;;;;;;;;7.67;6.33;;;;;15.92;53.60;102079.66;5060711;28;45385;-69
2022/05/13 06:50:13;;;;;;;;;7.33;6.00;;;;;16.05;53.25;102087.53;5062875;28;45453;-70
2022/05/13 06:52:38;;;;;;;;;8.33;3.33;;;;;16.28;51.87;102077.88;5062533;28;46191;-70
2022/05/13 06:55:05;;;;;;;;;5.67;5.67;;;;;16.32;52.14;102086.66;5062705;28;45241;-70
2022/05/13 06:57:31;;;;;;;;;4.00;4.00;;;;;16.53;51.10;102091.84;5062384;28;45230;-70
2022/05/13 06:59:56;;;;;;;;;7.00;4.00;;;;;16.58;50.56;102089.53;5062517;28;45261;-70
2022/05/13 07:02:23;;;;;;;;;4.67;4.67;;;;;16.78;50.31;102082.91;5062694;28;46389;-70
2022/05/13 07:04:49;;;;;;;;;5.33;3.00;;;;;16.82;49.99;102092.53;5070226;28;45423;-70
2022/05/13 07:07:14;;;;;;;;;8.00;5.33;;;;;16.83;49.49;102088.78;5083163;27;45543;-70
2022/05/13 07:09:40;;;;;;;;;8.33;6.00;;;;;16.80;49.17;102094.59;5083651;27;45494;-70
2022/05/13 07:12:07;;;;;;;;;6.33;3.33;;;;;16.89;49.00;102095.50;5083011;27;45421;-69
2022/05/13 07:14:34;;;;;;;;;8.33;5.00;;;;;16.91;49.69;102072.38;5083003;28;45289;-69
2022/05/13 07:17:00;;;;;;;;;5.00;3.33;;;;;17.13;48.18;102102.09;5083600;28;45442;-69
2022/05/13 07:19:26;;;;;;;;;6.67;6.33;;;;;17.19;48.40;102099.75;5083540;27;45463;-69
2022/05/13 07:21:52;;;;;;;;;4.67;3.33;;;;;17.05;48.75;102102.03;5082874;27;45617;-69
2022/05/13 07:24:18;;;;;;;;;5.00;4.00;;;;;17.10;48.27;102098.81;5082006;28;45400;-69
2022/05/13 07:26:43;;;;;;;;;3.33;3.33;;;;;17.26;48.01;102089.84;5080426;27;45246;-69
2022/05/13 07:29:10;;;;;;;;;4.00;4.00;;;;;17.57;47.22;102096.63;5061791;28;45239;-69
2022/05/13 07:31:35;;;;;;;;;6.33;3.67;;;;;17.51;46.92;102103.63;5061423;28;45674;-69
2022/05/13 07:34:02;;;;;;;;;5.00;5.00;;;;;17.52;47.07;102099.00;5062269;28;45246;-69
2022/05/13 07:36:27;;;;;;;;;4.67;3.00;;;;;17.79;46.74;102087.84;5062170;28;45484;-70
2022/05/13 07:41:37;;;;;;;;;5.67;5.00;;;;;18.00;46.40;102094.84;5062175;28;45256;-68
2022/05/13 07:44:03;;;;;;;;;5.33;3.67;;;;;17.64;46.65;102108.72;5062318;28;45241;-69
2022/05/13 07:46:28;;;;;;;;;4.33;3.00;;;;;17.68;47.00;102107.34;5062075;28;45207;-68
2022/05/13 07:48:54;;;;;;;;;10.67;5.00;;;;;17.75;46.29;102093.84;5062679;28;45549;-68
2022/05/13 07:51:19;;;;;;;;;5.00;4.67;;;;;17.63;46.64;102107.00;5060723;28;45316;-68
2022/05/13 07:53:45;;;;;;;;;6.00;3.33;;;;;17.62;47.13;102099.75;5061706;28;45504;-68
2022/05/13 07:56:11;;;;;;;;;4.67;4.67;;;;;17.78;46.16;102108.13;5060292;28;45399;-69
2022/05/13 07:58:37;;;;;;;;;4.67;3.33;;;;;18.03;46.25;102106.38;5060827;28;45311;-69
2022/05/13 08:01:03;;;;;;;;;6.00;2.67;;;;;18.22;46.13;102108.88;5061435;28;46343;-69
2022/05/13 08:03:30;;;;;;;;;6.33;5.00;;;;;18.02;46.31;102101.91;5073122;28;45270;-69
2022/05/13 08:06:02;;;;;;;;;7.00;5.33;;;;;17.92;46.50;102105.78;5082430;28;45286;-69
2022/05/13 08:08:31;;;;;;;;;4.00;2.00;;;;;18.06;45.73;102110.66;5086450;27;45373;-69
2022/05/13 08:10:59;;;;;;;;;4.33;2.00;;;;;18.18;45.91;102106.63;5085315;27;45263;-69
2022/05/13 08:13:25;;;;;;;;;3.00;3.00;;;;;18.36;46.28;102098.25;5085695;27;45226;-69
2022/05/13 08:15:52;;;;;;;;;5.00;5.00;;;;;18.36;45.49;102093.63;5085800;27;45350;-69
2022/05/13 08:18:19;;;;;;;;;3.33;3.33;;;;;18.44;45.11;102093.66;5086323;27;45262;-69
2022/05/13 08:20:45;;;;;;;;;6.00;4.00;;;;;18.70;45.71;102101.84;5084020;28;47427;-69
2022/05/13 08:23:11;;;;;;;;;4.67;4.00;;;;;19.00;45.31;102103.06;5085973;28;45207;-69
2022/05/13 08:25:37;;;;;;;;;7.33;3.00;;;;;19.22;44.69;102102.41;5086413;28;45478;-69
2022/05/13 08:28:08;;;;;;;;;5.33;4.00;;;;;19.21;43.74;102095.19;5073091;27;45233;-69
2022/05/13 08:30:35;;;;;;;;;3.67;2.00;;;;;18.91;43.25;102093.09;5072731;28;46283;-69
2022/05/13 08:33:01;;;;;;;;;4.00;3.00;;;;;19.29;43.76;102089.66;5085515;27;45268;-69
2022/05/13 08:35:27;;;;;;;;;19.33;11.67;;;;;19.30;43.13;102098.78;5086040;27;45621;-69
2022/05/13 08:37:54;;;;;;;;;7.67;5.00;;;;;19.51;43.00;102101.03;5086532;27;45436;-70
2022/05/13 08:40:38;;;;;;;;;4.00;2.67;;;;;19.78;42.77;102087.75;5086033;27;45556;-69
2022/05/13 08:43:10;;;;;;;;;6.00;6.00;;;;;20.10;43.04;102097.81;5085700;28;45352;-69
2022/05/13 08:45:40;;;;;;;;;3.33;3.33;;;;;20.28;41.46;102099.47;5085596;27;45214;-69
2022/05/13 08:48:08;;;;;;;;;4.33;3.00;;;;;20.31;41.35;102099.13;5085441;27;45504;-69
2022/05/13 08:50:55;;;;;;;;;4.33;4.33;;;;;20.34;40.66;102102.41;5085329;28;45404;-70
2022/05/13 08:53:42;;;;;;;;;3.00;2.67;;;;;19.75;41.06;102106.53;5085653;28;45321;-69
2022/05/13 08:56:10;;;;;;;;;3.00;2.00;;;;;20.02;38.70;102099.72;5085698;28;45300;-70
2022/05/13 08:58:51;;;;;;;;;4.33;3.00;;;;;19.90;37.62;102102.00;5085787;27;45511;-70
2022/05/13 09:01:25;;;;;;;;;4.33;2.33;;;;;19.65;37.28;102095.69;5085461;27;45263;-69
2022/05/13 09:03:56;;;;;;;;;3.67;3.67;;;;;19.66;38.33;102091.03;5085008;27;45253;-68
2022/05/13 09:07:06;;;;;;;;;6.33;2.67;;;;;20.32;38.37;102104.44;5065042;28;45337;-69
2022/05/13 09:09:34;;;;;;;;;4.00;2.67;;;;;20.62;37.71;102094.47;5048291;28;45234;-68
2022/05/13 09:12:18;;;;;;;;;3.67;2.00;;;;;20.87;36.30;102101.59;5065077;28;45626;-69
2022/05/13 09:14:49;;;;;;;;;3.00;3.00;;;;;21.12;35.49;102096.72;5065499;28;45420;-68
2022/05/13 09:17:26;;;;;;;;;2.00;2.00;;;;;21.69;36.78;102096.25;5062764;28;45600;-69
2022/05/13 09:19:58;;;;;;;;;1.67;1.67;;;;;21.80;34.41;102100.44;5065356;28;45222;-69
2022/05/13 09:22:30;;;;;;;;;1.00;1.00;;;;;21.60;36.08;102098.25;5080089;27;48264;-68
2022/05/13 09:24:56;;;;;;;;;2.33;2.00;;;;;21.84;34.93;102094.38;5064615;28;45315;-68
2022/05/13 09:27:21;;;;;;;;;2.67;2.67;;;;;21.47;35.42;102100.78;5066912;28;45394;-69
2022/05/13 09:29:47;;;;;;;;;1.67;1.67;;;;;21.23;36.05;102096.34;5063610;28;45572;-68
2022/05/13 09:32:15;;;;;;;;;1.67;1.33;;;;;21.40;35.06;102091.53;5065091;28;45399;-69
2022/05/13 09:35:05;;;;;;;;;4.33;3.33;;;;;21.70;34.16;102089.66;5065367;28;45308;-68
2022/05/13 09:37:37;;;;;;;;;1.33;1.33;;;;;22.10;33.64;102082.84;5064005;28;45380;-68
2022/05/13 09:40:12;;;;;;;;;3.00;3.00;;;;;22.39;32.43;102093.88;5064532;28;45265;-69
2022/05/13 09:42:46;;;;;;;;;1.00;1.00;;;;;22.95;32.27;102088.59;5062370;28;48204;-69
2022/05/13 09:45:15;;;;;;;;;1.00;1.00;;;;;22.74;31.57;102083.03;5063355;28;45233;-68
2022/05/13 09:47:41;;;;;;;;;1.67;1.67;;;;;23.32;31.26;102078.28;5062832;28;45560;-67
2022/05/13 09:50:33;;;;;;;;;4.00;4.00;;;;;23.34;30.90;102078.94;5071455;28;45301;-70
2022/05/13 09:53:21;;;;;;;;;2.33;1.00;;;;;23.17;31.32;102086.69;5083085;28;45300;-70
2022/05/13 09:55:49;;;;;;;;;1.00;1.00;;;;;23.70;29.09;102078.84;5094706;27;45353;-70
2022/05/13 09:58:52;;;;;;;;;0.33;0.33;;;;;23.70;28.47;102085.25;5083122;28;45297;-70
2022/05/13 10:01:25;;;;;;;;;4.33;2.00;;;;;23.38;30.63;102058.09;5084773;28;45278;-70
2022/05/13 10:04:24;;;;;;;;;2.00;2.00;;;;;23.53;30.38;102081.06;5083339;28;46228;-70
2022/05/13 10:07:02;;;;;;;;;1.67;1.67;;;;;23.93;29.12;102069.19;5058937;28;45316;-70
2022/05/13 10:15:42;;;;;;;;;2.00;2.00;;;;;24.00;29.75;102066.44;5084200;28;45544;-70
2022/05/13 10:18:25;;;;;;;;;4.00;4.00;;;;;24.11;29.52;102063.06;5084149;28;45363;-70
2022/05/13 10:20:57;;;;;;;;;2.33;1.00;;;;;24.28;29.54;102069.19;5083905;28;45500;-70
2022/05/13 10:23:30;;;;;;;;;1.00;1.00;;;;;24.58;28.60;102065.03;5085077;28;45202;-70
2022/05/13 10:26:03;;;;;;;;;2.67;2.67;;;;;25.07;28.27;102075.00;5083474;28;45424;-69
2022/05/13 10:28:36;;;;;;;;;1.00;1.00;;;;;24.39;28.31;102069.47;5068175;27;45692;-68
2022/05/13 10:31:12;;;;;;;;;1.00;1.00;;;;;25.01;28.07;102067.50;5062748;28;45480;-70
2022/05/13 10:34:08;;;;;;;;;2.00;2.00;;;;;25.53;28.92;102059.19;5063698;28;45324;-69
2022/05/13 10:36:51;;;;;;;;;3.33;2.67;;;;;25.01;27.60;102064.72;5063392;28;45538;-70
2022/05/13 10:39:38;;;;;;;;;3.00;3.00;;;;;24.61;28.56;102061.84;5063553;28;45322;-70
2022/05/13 10:42:09;;;;;;;;;2.33;2.33;;;;;24.86;28.10;102050.13;5072675;28;45259;-69
2022/05/13 10:44:46;;;;;;;;;4.67;1.33;;;;;24.81;28.93;102048.00;5084267;28;45248;-69
2022/05/13 10:47:22;;;;;;;;;2.00;2.00;;;;;25.67;28.66;102054.50;5084163;27;46518;-70
2022/05/13 10:49:48;;;;;;;;;1.00;1.00;;;;;26.11;26.87;102044.53;5083920;27;45348;-70
2022/05/13 10:52:35;;;;;;;;;4.00;3.00;;;;;26.42;27.10;102049.38;5083819;28;45392;-70
2022/05/13 10:55:09;;;;;;;;;2.00;1.33;;;;;26.20;27.74;102046.00;5084157;28;45163;-70
2022/05/13 10:58:02;;;;;;;;;3.00;1.00;;;;;26.33;27.52;102038.47;5083531;28;45649;-69
2022/05/13 11:00:51;;;;;;;;;2.00;2.00;;;;;26.69;26.37;102035.06;5083787;27;45413;-69
2022/05/13 11:03:34;;;;;;;;;3.67;2.67;;;;;26.76;25.33;102037.81;5083527;28;45521;-69
2022/05/13 11:06:29;;;;;;;;;7.67;7.00;;;;;26.16;26.86;102039.13;5064751;27;45326;-68
2022/05/13 11:09:16;;;;;;;;;3.33;3.33;;;;;25.46;27.30;102043.56;5063205;28;45309;-68
2022/05/13 11:11:45;;;;;;;;;1.00;1.00;;;;;25.03;28.01;102034.78;5063162;28;45258;-70
2022/05/13 11:15:08;;;;;;;;;2.33;2.00;;;;;24.77;28.57;102035.56;5061893;28;45446;-68
2022/05/13 11:17:49;;;;;;;;;2.33;1.67;;;;;25.42;28.00;102034.81;5041164;28;45283;-69
2022/05/13 11:20:42;;;;;;;;;2.00;2.00;;;;;25.62;27.60;102039.50;5061747;27;45464;-69
2022/05/13 11:23:24;;;;;;;;;2.00;0.00;;;;;25.34;27.69;102023.03;5062914;28;45258;-69
2022/05/13 11:26:10;;;;;;;;;2.00;2.00;;;;;25.37;27.51;102029.00;5071100;28;45282;-69
2022/05/13 11:28:50;;;;;;;;;3.00;3.00;;;;;25.31;27.97;102027.09;5066831;27;45516;-69
2022/05/13 11:31:30;;;;;;;;;3.33;1.33;;;;;25.35;27.37;102036.72;5063059;28;46375;-69
2022/05/13 11:34:15;;;;;;;;;1.00;1.00;;;;;25.14;27.29;102048.03;5071073;28;45320;-69
2022/05/13 11:36:44;;;;;;;;;3.33;2.00;;;;;25.40;27.39;102028.59;5083042;28;45356;-69
2022/05/13 11:39:31;;;;;;;;;4.00;4.00;;;;;26.01;27.52;102025.47;5083511;27;45468;-69
2022/05/13 11:42:08;;;;;;;;;1.00;1.00;;;;;25.98;26.62;102023.16;5081724;28;46658;-69
2022/05/13 11:44:46;;;;;;;;;3.00;1.00;;;;;26.62;26.18;102022.22;5083014;28;45167;-69
2022/05/13 11:47:41;;;;;;;;;4.00;3.00;;;;;27.34;25.85;102015.28;5082907;28;45421;-69
2022/05/13 11:50:08;;;;;;;;;2.00;2.00;;;;;27.59;24.87;102016.16;5081855;27;45514;-69
2022/05/13 11:52:40;;;;;;;;;3.00;3.00;;;;;27.96;25.71;102013.38;5082568;28;45563;-69
2022/05/13 11:55:14;;;;;;;;;1.00;1.00;;;;;28.25;24.46;102012.63;5098401;27;45436;-69
2022/05/13 11:57:42;;;;;;;;;2.33;2.00;;;;;28.39;24.50;102005.75;5083078;28;45424;-69
2022/05/13 12:00:38;;;;;;;;;2.00;2.00;;;;;28.59;23.98;102014.72;5082015;28;45420;-69
2022/05/13 12:03:09;;;;;;;;;1.00;1.00;;;;;28.18;24.03;102012.72;5082874;28;46362;-69
2022/05/13 12:05:50;;;;;;;;;3.00;2.00;;;;;28.06;23.63;102006.16;5080986;28;45673;-69
2022/05/13 12:08:50;;;;;;;;;3.00;2.00;;;;;27.24;24.37;102001.00;5082839;28;45277;-71
2022/05/13 12:11:41;;;;;;;;;4.00;4.00;;;;;26.88;25.29;102002.56;5082890;28;45543;-70
2022/05/13 12:14:27;;;;;;;;;2.00;2.00;;;;;26.51;25.44;102006.22;5082314;28;46669;-70